Friday, November 24, 2017, 5:34 AM GMT
Back to Local

CYHM, Hamilton Airport

Location: , , Canada Lat: 43.167
Local Time: 5:34 AM GMT ( 5:34 GMT) Lon: -79.933
Time Zone: GMT Elev: 777 ft

Show me the last for .
Show Decoded

2017-11-24 05:00 METAR CYHM 240500Z 24011KT 15SM BKN042 02/M03 A2993 RMK SC7 SLP143 =
2017-11-24 04:00 METAR CYHM 240400Z 25013KT 15SM OVC039 02/M03 A2993 RMK SC8 SLP147 =
2017-11-24 03:00 METAR CYHM 240300Z 25014G20KT 15SM OVC050 03/M03 A2993 RMK SC8 SLP145 =
2017-11-24 02:00 METAR CYHM 240200Z 25012KT 15SM OVC056 02/M02 A2993 RMK SC8 SLP146 =
2017-11-24 01:00 METAR CYHM 240100Z 25008KT 15SM OVC064 02/M02 A2994 RMK SC8 SLP150 =
2017-11-24 00:00 METAR CYHM 240000Z 24012KT 15SM OVC067 02/M02 A2993 RMK AC8 SLP148 =
2017-11-23 23:00 METAR CYHM 232300Z 23013KT 15SM SCT039 OVC060 02/M02 A2992 RMK SC3SC5 SLP144 =
2017-11-23 22:00 METAR CYHM 232200Z 24009G16KT 15SM BKN037 OVC058 02/M02 A2992 RMK SC5SC3 SLP142
                 =
2017-11-23 21:00 METAR CYHM 232100Z 26011KT 15SM FEW028 FEW042 OVC052 02/M03 A2993 RMK CU1SC2SC6
                 CU TR SLP145 =
2017-11-23 20:00 METAR CYHM 232000Z 24014G22KT 15SM FEW028 OVC056 03/M04 A2993 RMK CU1SC8 CU TR
                 SLP145 =
2017-11-23 19:00 METAR CYHM 231900Z 23015KT 15SM FEW025 SCT042 BKN100 03/M03 A2993 RMK CU1SC3AC3
                 SLP148 =
2017-11-23 18:00 METAR CYHM 231800Z 23016KT 15SM FEW032 SCT045 BKN100 BKN110 03/M04 A2996 RMK
                 SC2SC2AC2AC1 SLP158 =
2017-11-23 17:00 METAR CYHM 231700Z 24014KT 15SM SCT032 OVC098 02/M05 A3000 RMK SC3AC5 SLP169 =
2017-11-23 16:00 METAR CYHM 231600Z 25013KT 15SM SCT060 OVC100 01/M05 A3003 RMK SC3AC5 SLP179 =
2017-11-23 15:00 METAR CYHM 231500Z 25012KT 15SM BKN066 02/M05 A3004 RMK AC6 SLP186 =
2017-11-23 14:00 METAR CYHM 231400Z 25008KT 15SM FEW040 SCT070 BKN120 BKN220 M01/M06 A3008 RMK
                 SC2AC1AC2CI2 SLP200 =
2017-11-23 13:00 METAR CYHM 231300Z 23005KT 15SM SCT040 BKN085 M02/M06 A3008 RMK SC3AC4 SLP200 =
2017-11-23 12:00 METAR CYHM 231200Z 24007KT 12SM SCT034 OVC095 M02/M07 A3008 RMK SC3AC5 SLP198 =
2017-11-23 11:00 METAR CYHM 231100Z 22005KT 15SM OVC110 M02/M07 A3008 RMK AC8 SLP200 =
2017-11-23 10:00 METAR CYHM 231000Z 25005KT 15SM OVC110 M02/M07 A3010 RMK AC8 SLP206 =
2017-11-23 09:00 METAR CYHM 230900Z 22008KT 15SM FEW030 OVC110 M02/M06 A3013 RMK SC2AC6 SLP215 =
2017-11-23 08:00 METAR CYHM 230800Z 23007KT 15SM SCT036 OVC120 M02/M06 A3015 RMK SC4AC4 SLP222 =
2017-11-23 07:00 METAR CYHM 230700Z 21006KT 15SM OVC035 M02/M06 A3015 RMK SC8 SLP221 =
2017-11-23 06:00 METAR CYHM 230600Z 22005KT 15SM OVC032 M02/M05 A3016 RMK SC8 SLP226 =

Support USWX by starting your Amazon purchase here.